Queen Isabella — A8IE2 — position and weather

sailwx.info

Track history (hours):
 
Tides and Currents Weather Stations Pressure Air Temp Water Temp Dewpoint Dewpoint Depression Visibility Wind Speed Wind Dir Waves Ship Positions

Queen Isabella

Last reported at 2016-May-04 06:33 UTC. Time now 2016-May-04 13:34 UTC.
Position N 35°58' W 005°33'.

Length 131 m; draft 5.9 m.

Type: Ship. MMSI: 636090959.

Date/timePositionNaut miles runAvg speedWind from/ knotsBaromVisibWave heightAir tempDewpointWater temp
2016-May-04 06:33N 35°58' W 005°33'1110.9
2016-May-04 05:33N 36°02' W 005°20'22412.4
2016-May-03 11:33N 37°17' W 000°58'1313.0
2016-May-03 10:33N 37°26' W 000°45'1313.0
2016-May-03 09:34N 37°35' W 000°34'1312.8
2016-May-03 08:33N 37°45' W 000°24'1312.8
2016-May-03 07:34N 37°56' W 000°15'1312.6
2016-May-03 06:30N 38°07' W 000°06'1212.7
2016-May-03 05:33N 38°17' E 000°02'1412.7
2016-May-03 04:26N 38°29' E 000°12'5711.5
2016-May-02 23:29N 39°25' W 000°03'1213.2
2016-May-02 22:33N 39°36' W 000°11'1 0.0
2016-May-01 05:31N 39°36' W 000°10'8011.5
2016-Apr-30 22:33N 39°24' E 001°33'1212.1
2016-Apr-30 21:33N 39°19' E 001°47'1212.0
2016-Apr-30 20:33N 39°14' E 002°01'1212.2
2016-Apr-30 19:34N 39°08' E 002°15'1312.7
2016-Apr-30 18:33N 39°03' E 002°30'1212.5
2016-Apr-30 17:33N 38°57' E 002°44'1212.0
2016-Apr-30 16:33N 38°54' E 002°59'1211.7
2016-Apr-30 15:33N 38°47' E 003°11'  
2016-Apr-28 04:33N 38°47' E 003°12'1313.0
2016-Apr-28 03:33N 38°53' E 002°57'1312.7
2016-Apr-28 02:33N 38°58' E 002°42'1212.3
2016-Apr-28 01:33N 39°02' E 002°27'1212.1
2016-Apr-28 00:34N 39°09' E 002°14'1312.5
2016-Apr-27 23:33N 39°15' E 001°60'1212.3
2016-Apr-27 22:33N 39°18' E 001°44'2912.3
2016-Apr-27 20:12N 39°20' E 001°07'5812.3
2016-Apr-27 15:29N 39°23' W 000°08'  
Track history (hours):
 
Tides and Currents Weather Stations Pressure Air Temp Water Temp Dewpoint Dewpoint Depression Visibility Wind Speed Wind Dir Waves Ship Positions

Queen Isabella

Last reported at 2016-May-04 06:33 UTC. Time now 2016-May-04 13:34 UTC.
Position N 35°58' W 005°33'.

Length 131 m; draft 5.9 m.

Type: Ship. MMSI: 636090959.

Date/timePositionNaut miles runAvg speedWind from/ knotsBaromVisibWave heightAir tempDewpointWater temp
2016-May-04 06:33N 35°58' W 005°33'1110.9
2016-May-04 05:33N 36°02' W 005°20'22412.4
2016-May-03 11:33N 37°17' W 000°58'1313.0
2016-May-03 10:33N 37°26' W 000°45'1313.0
2016-May-03 09:34N 37°35' W 000°34'1312.8
2016-May-03 08:33N 37°45' W 000°24'1312.8
2016-May-03 07:34N 37°56' W 000°15'1312.6
2016-May-03 06:30N 38°07' W 000°06'1212.7
2016-May-03 05:33N 38°17' E 000°02'1412.7
2016-May-03 04:26N 38°29' E 000°12'5711.5
2016-May-02 23:29N 39°25' W 000°03'1213.2
2016-May-02 22:33N 39°36' W 000°11'1 0.0
2016-May-01 05:31N 39°36' W 000°10'8011.5
2016-Apr-30 22:33N 39°24' E 001°33'1212.1
2016-Apr-30 21:33N 39°19' E 001°47'1212.0
2016-Apr-30 20:33N 39°14' E 002°01'1212.2
2016-Apr-30 19:34N 39°08' E 002°15'1312.7
2016-Apr-30 18:33N 39°03' E 002°30'1212.5
2016-Apr-30 17:33N 38°57' E 002°44'1212.0
2016-Apr-30 16:33N 38°54' E 002°59'1211.7
2016-Apr-30 15:33N 38°47' E 003°11'  
2016-Apr-28 04:33N 38°47' E 003°12'1313.0
2016-Apr-28 03:33N 38°53' E 002°57'1312.7
2016-Apr-28 02:33N 38°58' E 002°42'1212.3
2016-Apr-28 01:33N 39°02' E 002°27'1212.1
2016-Apr-28 00:34N 39°09' E 002°14'1312.5
2016-Apr-27 23:33N 39°15' E 001°60'1212.3
2016-Apr-27 22:33N 39°18' E 001°44'2912.3
2016-Apr-27 20:12N 39°20' E 001°07'5812.3
2016-Apr-27 15:29N 39°23' W 000°08'  

Dump ship's entire track history